Time;durP1;ratioP1;P1;durP2;ratioP2;P2;SDS_P1;SDS_P2;PMS_P1;PMS_P2;Temp;Humidity;BMP_temperature;BMP_pressure;BME280_temperature;BME280_humidity;BME280_pressure;Samples;Min_cycle;Max_cycle;Signal;HPM_P1;HPM_P2
2023/12/18 00:01:41;;;;;;;1.45;1.35;;;6.90;99.90;;;;;;5095405;28;20085;-70
2023/12/18 00:04:07;;;;;;;2.45;1.70;;;7.00;99.90;;;;;;5095307;28;20482;-70
2023/12/18 00:06:33;;;;;;;1.65;1.55;;;6.90;99.90;;;;;;5095339;28;20052;-70
2023/12/18 00:08:59;;;;;;;1.47;1.37;;;7.00;99.90;;;;;;5095474;28;20036;-70
2023/12/18 00:11:24;;;;;;;1.98;1.83;;;7.20;99.90;;;;;;5095252;28;20040;-70
2023/12/18 00:13:50;;;;;;;1.20;1.10;;;7.00;99.90;;;;;;5095045;28;20036;-70
2023/12/18 00:16:15;;;;;;;3.38;2.15;;;7.00;99.90;;;;;;5094853;28;20039;-71
2023/12/18 00:18:41;;;;;;;1.63;1.52;;;7.00;99.90;;;;;;5095366;28;20047;-71
2023/12/18 00:21:07;;;;;;;1.23;1.13;;;7.00;99.90;;;;;;5095001;28;20357;-70
2023/12/18 00:23:33;;;;;;;1.50;1.40;;;7.00;99.90;;;;;;5094848;28;20181;-71
2023/12/18 00:25:58;;;;;;;7.63;2.22;;;7.00;99.90;;;;;;5093503;28;20468;-71
2023/12/18 00:28:24;;;;;;;1.45;1.33;;;7.00;99.90;;;;;;5094766;28;20036;-71
2023/12/18 00:30:49;;;;;;;1.45;1.35;;;7.00;99.90;;;;;;5095181;28;20119;-68
2023/12/18 00:33:15;;;;;;;1.35;1.25;;;6.90;99.90;;;;;;5094693;28;20047;-70
2023/12/18 00:35:41;;;;;;;1.77;1.67;;;7.00;99.90;;;;;;5094648;28;20042;-71
2023/12/18 00:38:06;;;;;;;1.50;1.30;;;7.00;99.90;;;;;;5094740;28;20468;-71
2023/12/18 00:40:32;;;;;;;1.33;1.23;;;7.00;99.90;;;;;;5094582;28;20048;-70
2023/12/18 00:42:57;;;;;;;1.20;1.10;;;7.80;99.90;;;;;;5094217;28;20089;-70
2023/12/18 00:45:23;;;;;;;1.40;1.30;;;7.00;99.90;;;;;;5094666;28;20044;-70
2023/12/18 00:47:49;;;;;;;1.17;1.08;;;7.00;99.90;;;;;;5094874;28;20047;-70
2023/12/18 00:50:14;;;;;;;1.58;1.48;;;7.00;99.90;;;;;;5094418;28;20052;-71
2023/12/18 00:52:40;;;;;;;1.10;1.00;;;7.00;99.90;;;;;;5094421;28;20028;-71
2023/12/18 00:55:06;;;;;;;2.40;2.20;;;7.70;99.90;;;;;;5094475;28;20081;-71
2023/12/18 00:57:32;;;;;;;1.65;1.55;;;7.00;99.90;;;;;;5094058;28;20070;-71
2023/12/18 00:59:58;;;;;;;1.75;1.65;;;7.00;99.90;;;;;;5094277;28;20052;-70
2023/12/18 01:02:24;;;;;;;1.10;1.00;;;7.00;99.90;;;;;;5094180;28;20036;-70
2023/12/18 01:04:50;;;;;;;1.40;1.30;;;7.00;99.90;;;;;;5094215;28;20043;-70
2023/12/18 01:07:15;;;;;;;1.55;1.40;;;7.00;99.90;;;;;;5094424;28;20043;-71
2023/12/18 01:09:41;;;;;;;1.10;1.00;;;7.00;99.90;;;;;;5094180;28;20460;-70
2023/12/18 01:12:06;;;;;;;1.20;1.10;;;7.00;99.90;;;;;;5094088;28;20047;-71
2023/12/18 01:14:32;;;;;;;1.65;1.55;;;7.30;99.90;;;;;;5094533;28;20036;-70
2023/12/18 01:16:58;;;;;;;1.38;1.27;;;7.00;99.90;;;;;;5093899;28;20055;-70
2023/12/18 01:19:23;;;;;;;1.33;1.23;;;7.10;99.90;;;;;;5094259;28;20101;-71
2023/12/18 01:21:49;;;;;;;1.20;1.10;;;7.00;99.90;;;;;;5094248;28;20372;-70
2023/12/18 01:24:16;;;;;;;1.48;1.38;;;7.60;99.90;;;;;;5092904;28;20120;-71
2023/12/18 01:26:41;;;;;;;1.75;1.65;;;7.10;99.90;;;;;;5093993;28;20122;-70
2023/12/18 01:29:07;;;;;;;1.08;1.00;;;7.10;99.90;;;;;;5093834;28;20448;-70
2023/12/18 01:31:32;;;;;;;1.02;1.00;;;7.10;99.90;;;;;;5094265;28;20122;-70
2023/12/18 01:33:58;;;;;;;0.90;0.90;;;7.80;99.90;;;;;;5093869;28;20101;-70
2023/12/18 01:36:24;;;;;;;2.20;2.10;;;7.10;99.90;;;;;;5093344;28;20048;-70
2023/12/18 01:38:51;;;;;;;1.20;1.10;;;7.10;99.90;;;;;;5093780;28;20051;-70
2023/12/18 01:41:19;;;;;;;1.87;1.77;;;7.10;99.90;;;;;;5093761;28;20131;-70
2023/12/18 01:43:45;;;;;;;1.38;1.27;;;7.10;99.90;;;;;;5093587;28;20384;-70
2023/12/18 01:46:21;;;;;;;1.00;0.90;;;7.90;99.90;;;;;;5093712;28;20043;-70
2023/12/18 01:48:47;;;;;;;2.13;1.70;;;7.10;99.90;;;;;;5093912;28;20054;-70
2023/12/18 01:51:13;;;;;;;1.02;1.00;;;7.20;99.90;;;;;;5093748;28;20495;-70
2023/12/18 01:53:53;;;;;;;1.10;1.00;;;7.10;99.90;;;;;;5093314;28;20044;-70
2023/12/18 01:56:23;;;;;;;0.90;0.90;;;7.70;99.90;;;;;;5094101;28;20048;-70
2023/12/18 01:58:50;;;;;;;2.20;1.67;;;8.00;99.90;;;;;;5093609;28;20094;-70
2023/12/18 02:01:16;;;;;;;1.10;1.00;;;7.10;99.90;;;;;;5093386;28;20464;-70
2023/12/18 02:03:43;;;;;;;1.20;1.10;;;7.10;99.90;;;;;;5093555;28;20036;-70
2023/12/18 02:06:12;;;;;;;1.10;1.00;;;7.20;99.90;;;;;;5093435;28;20464;-71
2023/12/18 02:08:39;;;;;;;1.20;1.10;;;7.10;99.90;;;;;;5093489;28;20093;-70
2023/12/18 02:11:05;;;;;;;1.83;1.73;;;7.10;99.90;;;;;;5093478;28;20048;-69
2023/12/18 02:13:30;;;;;;;1.52;1.42;;;7.10;99.90;;;;;;5093905;28;20036;-70
2023/12/18 02:15:57;;;;;;;1.10;1.00;;;7.20;99.90;;;;;;5093447;28;20075;-70
2023/12/18 02:18:23;;;;;;;1.35;1.25;;;7.30;99.90;;;;;;5093693;28;20050;-70
2023/12/18 02:20:49;;;;;;;2.35;2.00;;;8.10;99.90;;;;;;5093502;28;20482;-70
2023/12/18 02:23:14;;;;;;;1.30;1.20;;;7.20;99.90;;;;;;5093314;28;20036;-70
2023/12/18 02:25:40;;;;;;;1.10;1.00;;;7.20;99.90;;;;;;5093352;28;20043;-71
2023/12/18 02:28:10;;;;;;;2.15;1.98;;;7.20;99.90;;;;;;5093374;28;20043;-70
2023/12/18 02:30:36;;;;;;;2.38;2.17;;;7.20;99.90;;;;;;5093590;28;20055;-70
2023/12/18 02:33:01;;;;;;;2.08;1.98;;;7.60;99.90;;;;;;5093459;28;20040;-70
2023/12/18 02:35:27;;;;;;;1.20;1.10;;;7.20;99.90;;;;;;5093344;28;20050;-70
2023/12/18 02:37:53;;;;;;;6.20;3.05;;;8.00;99.90;;;;;;5093223;28;20487;-71
2023/12/18 02:40:18;;;;;;;1.55;1.45;;;7.20;99.90;;;;;;5093707;28;20127;-70
2023/12/18 02:42:44;;;;;;;1.20;1.10;;;7.70;99.90;;;;;;5093102;28;20047;-70
2023/12/18 02:45:10;;;;;;;1.52;1.42;;;8.50;99.90;;;;;;5093285;28;20032;-70
2023/12/18 02:47:36;;;;;;;2.35;1.20;;;7.20;99.90;;;;;;5093426;28;20036;-70
2023/12/18 02:50:01;;;;;;;2.75;2.53;;;7.20;99.90;;;;;;5095907;28;20036;-71
2023/12/18 02:52:27;;;;;;;1.17;1.08;;;7.20;99.90;;;;;;5096715;28;20384;-70
2023/12/18 02:54:53;;;;;;;1.80;1.70;;;7.20;99.90;;;;;;5096735;28;20131;-70
2023/12/18 02:57:18;;;;;;;1.83;1.73;;;7.20;99.90;;;;;;5096359;28;20032;-70
2023/12/18 02:59:44;;;;;;;1.20;1.10;;;7.20;99.90;;;;;;5096881;28;20040;-70
2023/12/18 03:02:09;;;;;;;1.60;1.50;;;7.10;99.90;;;;;;5095684;28;20040;-70
2023/12/18 03:04:39;;;;;;;3.53;2.20;;;7.20;99.90;;;;;;5096396;28;20119;-70
2023/12/18 03:07:05;;;;;;;1.40;1.30;;;7.20;99.90;;;;;;5096580;28;20126;-70
2023/12/18 03:09:31;;;;;;;1.20;1.10;;;7.80;99.90;;;;;;5096822;28;20067;-71
2023/12/18 03:11:56;;;;;;;1.65;1.55;;;7.20;99.90;;;;;;5096281;28;20036;-70
2023/12/18 03:14:22;;;;;;;1.30;1.20;;;7.90;99.90;;;;;;5096336;28;20044;-70
2023/12/18 03:16:47;;;;;;;1.38;1.20;;;7.20;99.90;;;;;;5095981;28;20048;-70
2023/12/18 03:19:14;;;;;;;1.33;1.23;;;7.20;99.90;;;;;;5096209;28;20054;-70
2023/12/18 03:21:40;;;;;;;1.30;1.20;;;7.20;99.90;;;;;;5096088;28;20520;-70
2023/12/18 03:24:05;;;;;;;1.15;1.05;;;7.70;99.90;;;;;;5095934;28;20166;-70
2023/12/18 03:26:31;;;;;;;4.88;1.70;;;7.20;99.90;;;;;;5095861;28;20479;-71
2023/12/18 03:28:57;;;;;;;1.05;0.95;;;7.80;99.90;;;;;;5095859;28;20076;-70
2023/12/18 03:31:22;;;;;;;1.20;1.10;;;7.20;99.90;;;;;;5096092;28;20043;-70
2023/12/18 03:33:48;;;;;;;4.43;1.52;;;7.20;99.90;;;;;;5095794;28;20086;-70
2023/12/18 03:36:13;;;;;;;2.40;1.90;;;8.00;99.90;;;;;;5095780;28;20126;-70
2023/12/18 03:38:39;;;;;;;1.70;1.40;;;7.30;99.90;;;;;;5095749;28;20046;-70
2023/12/18 03:41:05;;;;;;;1.73;1.63;;;7.30;99.90;;;;;;5095708;28;20138;-71
2023/12/18 03:43:30;;;;;;;1.85;1.35;;;8.20;99.90;;;;;;5095698;28;20039;-70
2023/12/18 03:45:56;;;;;;;1.63;1.38;;;7.20;99.90;;;;;;5095737;28;20036;-71
2023/12/18 03:48:21;;;;;;;1.67;1.58;;;7.20;99.90;;;;;;5095711;28;20028;-70
2023/12/18 03:50:47;;;;;;;1.27;1.17;;;7.20;99.90;;;;;;5095580;28;20450;-71
2023/12/18 03:53:13;;;;;;;1.10;1.00;;;7.50;99.90;;;;;;5095496;28;20133;-70
2023/12/18 03:55:39;;;;;;;1.48;1.38;;;7.20;99.90;;;;;;5095561;28;20036;-70
2023/12/18 03:58:05;;;;;;;1.25;1.15;;;7.20;99.90;;;;;;5095382;28;20092;-70
2023/12/18 04:00:31;;;;;;;1.10;1.00;;;7.20;99.90;;;;;;5095109;28;20356;-71
2023/12/18 04:02:56;;;;;;;1.20;1.10;;;7.20;99.90;;;;;;5094977;28;20089;-70
2023/12/18 04:05:24;;;;;;;1.33;1.23;;;7.20;99.90;;;;;;5095264;28;20085;-70
2023/12/18 04:07:50;;;;;;;1.10;1.00;;;7.20;99.90;;;;;;5095163;28;20083;-70
2023/12/18 04:10:16;;;;;;;3.78;3.47;;;7.20;99.90;;;;;;5095124;28;20042;-70
2023/12/18 04:12:42;;;;;;;1.30;1.20;;;7.20;99.90;;;;;;5095143;28;20048;-70
2023/12/18 04:15:09;;;;;;;2.33;1.70;;;7.20;99.90;;;;;;5095419;28;20376;-70
2023/12/18 04:17:35;;;;;;;1.10;1.00;;;7.20;99.90;;;;;;5095080;28;20083;-70
2023/12/18 04:20:01;;;;;;;1.20;1.10;;;7.20;99.90;;;;;;5095186;28;20035;-70
2023/12/18 04:22:26;;;;;;;5.20;2.55;;;7.20;99.90;;;;;;5094873;28;20273;-70
2023/12/18 04:24:52;;;;;;;1.33;1.23;;;7.90;99.90;;;;;;5094862;28;20443;-70
2023/12/18 04:27:17;;;;;;;1.10;1.00;;;7.20;99.90;;;;;;5094610;28;20036;-70
2023/12/18 04:29:43;;;;;;;1.85;1.10;;;7.20;99.90;;;;;;5094718;28;20052;-70
2023/12/18 04:32:09;;;;;;;1.15;1.08;;;7.20;99.90;;;;;;5094993;28;20044;-70
2023/12/18 04:34:34;;;;;;;2.35;1.35;;;7.20;99.90;;;;;;5094446;28;20032;-70
2023/12/18 04:37:00;;;;;;;1.98;1.85;;;7.20;99.90;;;;;;5094681;28;20039;-70
2023/12/18 04:39:25;;;;;;;1.42;1.33;;;7.20;99.90;;;;;;5094682;28;20503;-71
2023/12/18 04:41:51;;;;;;;1.40;1.30;;;7.20;99.90;;;;;;5094305;28;20075;-70
2023/12/18 04:44:16;;;;;;;1.88;1.17;;;7.20;99.90;;;;;;5094476;28;20047;-70
2023/12/18 04:46:42;;;;;;;0.90;0.90;;;7.20;99.90;;;;;;5094352;28;20092;-71
2023/12/18 04:49:12;;;;;;;3.45;1.55;;;7.10;99.90;;;;;;5094482;28;20174;-70
2023/12/18 04:51:38;;;;;;;1.10;1.00;;;7.20;99.90;;;;;;5093292;28;20067;-70
2023/12/18 04:54:04;;;;;;;2.33;1.38;;;7.10;99.90;;;;;;5094359;28;20083;-70
2023/12/18 04:56:29;;;;;;;0.93;0.93;;;7.10;99.90;;;;;;5094068;28;20032;-70
2023/12/18 04:58:55;;;;;;;2.78;1.48;;;7.80;99.90;;;;;;5094178;28;20052;-70
2023/12/18 05:01:20;;;;;;;1.52;1.42;;;7.10;99.90;;;;;;5094313;28;20032;-70
2023/12/18 05:03:46;;;;;;;1.23;1.13;;;7.20;99.90;;;;;;5094555;28;20032;-70
2023/12/18 05:06:22;;;;;;;1.35;1.25;;;7.10;99.90;;;;;;5094227;28;20383;-70
2023/12/18 05:08:48;;;;;;;1.20;1.10;;;7.10;99.90;;;;;;5094173;28;20040;-71
2023/12/18 05:11:17;;;;;;;5.00;4.55;;;7.10;99.90;;;;;;5093541;28;20043;-70
2023/12/18 05:13:43;;;;;;;1.05;1.00;;;7.10;99.90;;;;;;5093861;28;20388;-70
2023/12/18 05:16:08;;;;;;;1.17;1.08;;;7.10;99.90;;;;;;5093740;28;20036;-70
2023/12/18 05:18:34;;;;;;;1.25;1.15;;;7.10;99.90;;;;;;5094158;28;20131;-70
2023/12/18 05:21:00;;;;;;;1.20;1.10;;;7.00;99.90;;;;;;5093839;28;20036;-70
2023/12/18 05:23:26;;;;;;;1.50;1.40;;;7.10;99.90;;;;;;5093880;28;20036;-70
2023/12/18 05:25:51;;;;;;;2.70;1.92;;;7.00;99.90;;;;;;5093942;28;20046;-70
2023/12/18 05:28:18;;;;;;;1.05;1.00;;;7.00;99.90;;;;;;5093947;28;20357;-70
2023/12/18 05:30:44;;;;;;;1.10;1.00;;;7.90;99.90;;;;;;5093829;28;20040;-70
2023/12/18 05:33:10;;;;;;;2.13;1.80;;;7.00;99.90;;;;;;5093837;28;20509;-70
2023/12/18 05:35:36;;;;;;;1.10;1.00;;;8.00;99.90;;;;;;5093791;28;20044;-68
2023/12/18 05:38:01;;;;;;;1.23;1.13;;;7.00;99.90;;;;;;5094232;28;20506;-68
2023/12/18 05:40:27;;;;;;;1.60;1.35;;;7.00;99.90;;;;;;5094149;28;20032;-68
2023/12/18 05:42:53;;;;;;;1.30;1.20;;;7.00;99.90;;;;;;5094024;28;20063;-69
2023/12/18 05:45:18;;;;;;;1.65;1.42;;;7.00;99.90;;;;;;5094022;28;20032;-69
2023/12/18 05:47:44;;;;;;;1.10;1.00;;;7.00;99.90;;;;;;5093646;28;20478;-68
2023/12/18 05:50:11;;;;;;;1.60;1.50;;;7.10;99.90;;;;;;5093656;28;20055;-69
2023/12/18 05:52:37;;;;;;;;;;;7.30;99.90;;;;;;5094003;28;20050;-68
2023/12/18 05:55:03;;;;;;;0.98;0.95;;;7.10;99.90;;;;;;5093665;28;20003;-68
2023/12/18 05:57:29;;;;;;;1.17;1.07;;;7.10;99.90;;;;;;5094037;28;20046;-70
2023/12/18 05:59:54;;;;;;;1.80;1.70;;;8.10;99.90;;;;;;5093516;28;20032;-68
2023/12/18 06:02:20;;;;;;;1.42;1.33;;;7.20;99.90;;;;;;5093608;28;20038;-71
2023/12/18 06:04:46;;;;;;;1.38;1.27;;;7.40;99.90;;;;;;5093484;28;20036;-68
2023/12/18 06:07:12;;;;;;;1.63;1.52;;;7.10;99.90;;;;;;5093961;28;20461;-68
2023/12/18 06:09:38;;;;;;;1.10;1.00;;;7.10;99.90;;;;;;5093489;28;20476;-68
2023/12/18 06:12:04;;;;;;;1.35;1.25;;;7.60;99.90;;;;;;5093294;28;20064;-68
2023/12/18 06:14:29;;;;;;;1.10;1.00;;;7.10;99.90;;;;;;5093427;28;20036;-68
2023/12/18 06:16:55;;;;;;;2.65;2.45;;;7.10;99.90;;;;;;5093050;28;20059;-69
2023/12/18 06:19:20;;;;;;;1.20;1.10;;;7.20;99.90;;;;;;5093220;28;20040;-68
2023/12/18 06:21:46;;;;;;;1.20;1.10;;;7.20;99.90;;;;;;5093522;28;20040;-69
2023/12/18 06:24:11;;;;;;;1.30;1.20;;;7.20;99.90;;;;;;5096408;28;20371;-69
2023/12/18 06:26:37;;;;;;;1.52;1.42;;;7.20;99.90;;;;;;5097237;28;20036;-69
2023/12/18 06:29:02;;;;;;;1.30;1.20;;;7.20;99.90;;;;;;5097116;28;20544;-69
2023/12/18 06:31:28;;;;;;;1.15;1.05;;;7.20;99.90;;;;;;5097105;28;20043;-69
2023/12/18 06:33:53;;;;;;;1.20;1.10;;;7.20;99.90;;;;;;5097256;28;20046;-69
2023/12/18 06:36:19;;;;;;;2.65;1.77;;;7.20;99.90;;;;;;5096980;28;20466;-69
2023/12/18 06:38:45;;;;;;;1.35;1.25;;;7.20;99.90;;;;;;5096994;28;20047;-69
2023/12/18 06:41:11;;;;;;;1.30;1.20;;;7.20;99.90;;;;;;5096894;28;20109;-69
2023/12/18 06:43:38;;;;;;;1.10;1.00;;;7.20;99.90;;;;;;5096833;28;20123;-69
2023/12/18 06:46:04;;;;;;;1.23;1.13;;;7.20;99.90;;;;;;5097002;28;20447;-69
2023/12/18 06:48:30;;;;;;;1.37;1.27;;;7.30;99.90;;;;;;5096418;28;20043;-69
2023/12/18 06:50:56;;;;;;;1.52;1.42;;;7.30;99.90;;;;;;5096536;28;20270;-69
2023/12/18 06:53:21;;;;;;;1.52;1.42;;;7.30;99.90;;;;;;5096424;28;20399;-70
2023/12/18 06:55:47;;;;;;;2.15;1.65;;;7.30;99.90;;;;;;5096662;28;20042;-69
2023/12/18 06:58:12;;;;;;;1.35;1.25;;;7.30;99.90;;;;;;5096594;28;20487;-69
2023/12/18 07:00:38;;;;;;;2.63;2.45;;;7.30;99.90;;;;;;5096194;28;20104;-69
2023/12/18 07:03:04;;;;;;;1.20;1.10;;;7.90;99.90;;;;;;5096519;28;20032;-69
2023/12/18 07:05:29;;;;;;;2.17;2.08;;;7.30;99.90;;;;;;5096433;28;20075;-69
2023/12/18 07:07:55;;;;;;;1.38;1.27;;;7.30;99.90;;;;;;5096451;28;20065;-69
2023/12/18 07:10:22;;;;;;;1.55;1.45;;;7.30;99.90;;;;;;5096699;28;20040;-69
2023/12/18 07:12:48;;;;;;;1.55;1.45;;;8.00;99.90;;;;;;5096253;28;20048;-69
2023/12/18 07:15:15;;;;;;;1.10;1.00;;;7.30;99.90;;;;;;5096209;28;20047;-69
2023/12/18 07:17:41;;;;;;;2.83;1.75;;;7.30;99.90;;;;;;5096237;28;20098;-69
2023/12/18 07:20:08;;;;;;;2.28;1.30;;;7.30;99.90;;;;;;5096038;28;20405;-69
2023/12/18 07:22:34;;;;;;;1.75;1.40;;;7.30;99.90;;;;;;5095853;28;20051;-69
2023/12/18 07:25:00;;;;;;;10.88;2.65;;;7.30;99.90;;;;;;5095740;28;20040;-79
2023/12/18 07:27:25;;;;;;;2.05;1.85;;;8.30;99.90;;;;;;5096094;28;20036;-70
2023/12/18 07:29:51;;;;;;;1.63;1.52;;;7.30;99.90;;;;;;5095969;28;20384;-70
2023/12/18 07:32:16;;;;;;;1.30;1.20;;;7.30;99.90;;;;;;5096053;28;20123;-70
2023/12/18 07:34:42;;;;;;;1.38;1.27;;;8.20;99.90;;;;;;5095214;28;20456;-70
2023/12/18 07:37:08;;;;;;;1.20;1.10;;;7.30;99.90;;;;;;5095850;28;20036;-70
2023/12/18 07:39:34;;;;;;;1.30;1.20;;;7.30;99.90;;;;;;5094659;28;20036;-70
2023/12/18 07:42:01;;;;;;;1.10;1.00;;;7.30;99.90;;;;;;5095805;28;20434;-70
2023/12/18 07:44:26;;;;;;;;;;;7.30;99.90;;;;;;5096256;28;20090;-69
2023/12/18 07:46:52;;;;;;;1.60;1.50;;;7.30;99.90;;;;;;5095609;28;20267;-71
2023/12/18 07:49:17;;;;;;;3.25;2.00;;;7.30;99.90;;;;;;5095515;28;20422;-70
2023/12/18 07:51:43;;;;;;;1.20;1.10;;;7.30;99.90;;;;;;5095229;28;20044;-70
2023/12/18 07:54:09;;;;;;;1.63;1.52;;;7.30;99.90;;;;;;5095587;28;20044;-70
2023/12/18 07:56:34;;;;;;;1.20;1.10;;;7.30;99.90;;;;;;5095452;28;20380;-79
2023/12/18 07:59:00;;;;;;;2.05;1.95;;;7.60;99.90;;;;;;5095458;28;20036;-70
2023/12/18 08:01:26;;;;;;;2.83;1.88;;;7.30;99.90;;;;;;5095175;28;20098;-70
2023/12/18 08:03:52;;;;;;;1.45;1.35;;;7.30;99.90;;;;;;5095066;28;20063;-80
2023/12/18 08:06:18;;;;;;;1.25;1.15;;;7.30;99.90;;;;;;5095274;28;20391;-80
2023/12/18 08:08:44;;;;;;;1.33;1.23;;;7.30;99.90;;;;;;5095350;28;20040;-80
2023/12/18 08:11:10;;;;;;;1.52;1.42;;;7.30;99.90;;;;;;5095140;28;20539;-81
2023/12/18 08:13:38;;;;;;;2.03;1.92;;;7.30;99.90;;;;;;5095181;28;20489;-80
2023/12/18 08:16:07;;;;;;;1.02;1.00;;;7.30;99.90;;;;;;5095077;28;20105;-81
2023/12/18 08:18:33;;;;;;;1.80;1.67;;;7.30;99.90;;;;;;5094949;28;20055;-69
2023/12/18 08:20:59;;;;;;;1.20;1.10;;;7.30;99.90;;;;;;5094843;28;20044;-76
2023/12/18 08:23:24;;;;;;;7.32;2.58;;;7.30;99.90;;;;;;5094857;28;20036;-72
2023/12/18 08:25:50;;;;;;;1.15;1.05;;;8.20;99.90;;;;;;5094911;28;20370;-70
2023/12/18 08:28:15;;;;;;;1.42;1.33;;;7.30;99.90;;;;;;5094830;28;20496;-71
2023/12/18 08:30:43;;;;;;;1.65;1.55;;;7.30;99.90;;;;;;5094748;28;20047;-70
2023/12/18 08:33:08;;;;;;;1.40;1.30;;;7.30;99.90;;;;;;5094766;28;20072;-71
2023/12/18 08:35:34;;;;;;;2.08;1.75;;;7.30;99.90;;;;;;5094583;28;20434;-71
2023/12/18 08:37:59;;;;;;;1.30;1.20;;;7.60;99.90;;;;;;5094686;28;20047;-70
2023/12/18 08:40:25;;;;;;;1.20;1.10;;;7.30;99.90;;;;;;5094896;28;20123;-77
2023/12/18 08:42:51;;;;;;;1.23;1.13;;;7.70;99.90;;;;;;5093834;28;20043;-74
2023/12/18 08:45:17;;;;;;;1.30;1.20;;;7.30;99.90;;;;;;5093111;28;20430;-77
2023/12/18 08:47:42;;;;;;;1.73;1.63;;;7.50;99.90;;;;;;5092362;28;20074;-83
2023/12/18 08:50:09;;;;;;;1.20;1.10;;;7.40;99.90;;;;;;5094435;28;20139;-74
2023/12/18 08:52:35;;;;;;;1.33;1.23;;;7.40;99.90;;;;;;5093291;28;20040;-73
2023/12/18 08:55:01;;;;;;;1.10;1.00;;;8.20;99.90;;;;;;5094378;28;20032;-73
2023/12/18 08:57:27;;;;;;;1.77;1.67;;;7.40;99.90;;;;;;5094202;28;20270;-74
2023/12/18 08:59:54;;;;;;;1.67;1.57;;;7.40;99.90;;;;;;5094339;28;20051;-73
2023/12/18 09:02:19;;;;;;;1.20;1.10;;;7.80;99.90;;;;;;5094241;28;20128;-75
2023/12/18 09:04:45;;;;;;;1.48;1.38;;;7.40;99.90;;;;;;5094085;28;20077;-71
2023/12/18 09:07:11;;;;;;;2.35;2.20;;;7.40;99.90;;;;;;5093253;28;20055;-74
2023/12/18 09:09:39;;;;;;;1.70;1.60;;;7.90;99.90;;;;;;5094208;28;20036;-73
2023/12/18 09:12:08;;;;;;;1.30;1.20;;;7.50;99.90;;;;;;5093889;28;20097;-75
2023/12/18 09:14:34;;;;;;;1.30;1.20;;;7.40;99.90;;;;;;5094035;28;20131;-73
2023/12/18 09:16:59;;;;;;;4.00;1.40;;;8.10;99.90;;;;;;5093794;28;20131;-70
2023/12/18 09:19:25;;;;;;;1.58;1.48;;;7.40;99.90;;;;;;5093634;28;20051;-73
2023/12/18 09:21:51;;;;;;;1.75;1.65;;;7.40;99.90;;;;;;5091945;28;20426;-72
2023/12/18 09:24:16;;;;;;;3.15;1.33;;;7.50;99.90;;;;;;5091638;28;20031;-72
2023/12/18 09:26:42;;;;;;;1.85;1.75;;;8.10;99.90;;;;;;5092398;28;20047;-75
2023/12/18 09:29:09;;;;;;;2.00;1.30;;;7.50;99.90;;;;;;5092236;28;20450;-69
2023/12/18 09:31:35;;;;;;;1.20;1.10;;;7.70;99.90;;;;;;5093836;28;20471;-73
2023/12/18 09:34:01;;;;;;;7.72;7.10;;;7.80;99.90;;;;;;5093761;28;20044;-72
2023/12/18 09:36:26;;;;;;;1.45;1.35;;;7.50;99.90;;;;;;5093726;28;20101;-70
2023/12/18 09:38:52;;;;;;;4.82;2.20;;;7.50;99.90;;;;;;5093588;28;20044;-73
2023/12/18 09:41:24;;;;;;;1.20;1.10;;;7.50;99.90;;;;;;5093809;28;20039;-78
2023/12/18 09:43:52;;;;;;;1.50;1.40;;;7.50;99.90;;;;;;5093314;28;20444;-78
2023/12/18 09:46:19;;;;;;;1.30;1.20;;;7.50;99.90;;;;;;5093930;28;20044;-70
2023/12/18 09:48:45;;;;;;;1.65;1.55;;;7.50;99.90;;;;;;5093671;28;20040;-71
2023/12/18 09:51:19;;;;;;;2.20;1.75;;;7.60;99.90;;;;;;5094258;28;20044;-70
2023/12/18 09:53:46;;;;;;;2.55;1.33;;;7.60;99.90;;;;;;5094006;28;20402;-70
2023/12/18 09:56:12;;;;;;;2.00;1.90;;;7.60;99.90;;;;;;5093823;28;20361;-70
2023/12/18 09:58:40;;;;;;;1.30;1.20;;;7.90;99.90;;;;;;5095960;28;20036;-70
2023/12/18 10:01:07;;;;;;;2.30;2.10;;;7.70;99.90;;;;;;5097935;28;20043;-69
2023/12/18 10:03:32;;;;;;;2.08;1.50;;;8.20;99.90;;;;;;5097483;28;20373;-71
2023/12/18 10:05:58;;;;;;;1.60;1.50;;;7.60;99.90;;;;;;5097640;28;20070;-73
2023/12/18 10:08:23;;;;;;;2.05;1.95;;;8.30;99.90;;;;;;5097529;28;20105;-70
2023/12/18 10:10:50;;;;;;;1.20;1.10;;;7.60;99.90;;;;;;5097493;28;20051;-70
2023/12/18 10:13:15;;;;;;;3.17;2.97;;;7.60;99.90;;;;;;5097479;28;20076;-73
2023/12/18 10:15:42;;;;;;;1.48;1.38;;;7.60;99.90;;;;;;5097420;28;20092;-70
2023/12/18 10:18:11;;;;;;;1.30;1.20;;;7.70;99.90;;;;;;5097673;28;20132;-71
2023/12/18 10:20:38;;;;;;;1.38;1.27;;;7.60;99.90;;;;;;5097783;28;20367;-71
2023/12/18 10:23:04;;;;;;;;;;;8.40;99.90;;;;;;5097576;28;20090;-77
2023/12/18 10:25:31;;;;;;;1.20;1.10;;;7.70;99.90;;;;;;5097161;28;20347;-71
2023/12/18 10:27:57;;;;;;;1.42;1.33;;;7.70;99.90;;;;;;5097246;28;20074;-73
2023/12/18 10:30:27;;;;;;;1.43;1.33;;;7.70;99.90;;;;;;5097055;28;20202;-71
2023/12/18 10:32:53;;;;;;;1.35;1.25;;;7.70;99.90;;;;;;5096749;28;20818;-71
2023/12/18 10:35:20;;;;;;;1.40;1.30;;;7.70;99.90;;;;;;5095566;28;20063;-70
2023/12/18 10:37:54;;;;;;;1.65;1.42;;;7.70;99.90;;;;;;5095761;28;20498;-71
2023/12/18 10:40:23;;;;;;;1.58;1.48;;;7.80;99.90;;;;;;5096961;28;20076;-70
2023/12/18 10:43:17;;;;;;;2.95;2.65;;;7.90;99.90;;;;;;5096855;28;20043;-72
2023/12/18 10:45:46;;;;;;;1.40;1.30;;;7.80;99.90;;;;;;5095799;28;20387;-72
2023/12/18 10:48:13;;;;;;;1.20;1.10;;;7.80;99.90;;;;;;5096849;28;20085;-72
2023/12/18 10:50:39;;;;;;;1.23;1.13;;;7.80;99.90;;;;;;5096765;28;20040;-72
2023/12/18 10:53:05;;;;;;;1.30;1.20;;;8.60;99.90;;;;;;5095793;28;20043;-71
2023/12/18 10:55:33;;;;;;;1.52;1.42;;;7.90;99.90;;;;;;5096714;28;20092;-71
2023/12/18 10:58:01;;;;;;;1.23;1.13;;;8.30;99.90;;;;;;5096637;28;20040;-72
2023/12/18 11:00:28;;;;;;;1.23;1.13;;;7.90;99.90;;;;;;5096336;28;20468;-72
2023/12/18 11:02:55;;;;;;;1.58;1.48;;;7.90;99.90;;;;;;5096382;28;20048;-72
2023/12/18 11:05:23;;;;;;;1.40;1.30;;;8.10;99.90;;;;;;5096431;28;20089;-73
2023/12/18 11:07:50;;;;;;;1.58;1.48;;;7.90;99.90;;;;;;5096464;28;20124;-72
2023/12/18 11:10:16;;;;;;;1.42;1.33;;;8.40;99.90;;;;;;5095222;28;20072;-72
2023/12/18 11:12:42;;;;;;;1.48;1.38;;;7.90;99.90;;;;;;5096560;28;20076;-73
2023/12/18 11:15:29;;;;;;;1.35;1.25;;;7.90;99.90;;;;;;5096663;28;20042;-71
2023/12/18 11:18:00;;;;;;;1.48;1.38;;;7.90;99.90;;;;;;5096248;28;20051;-72
2023/12/18 11:20:39;;;;;;;1.25;1.15;;;7.90;99.90;;;;;;5096107;28;20102;-72
2023/12/18 11:23:05;;;;;;;1.55;1.45;;;7.90;99.90;;;;;;5096105;28;20119;-72
2023/12/18 11:25:47;;;;;;;2.58;2.38;;;7.90;99.90;;;;;;5096485;28;20071;-74
2023/12/18 11:28:13;;;;;;;1.33;1.23;;;8.50;99.90;;;;;;5096080;28;20032;-73
2023/12/18 11:30:43;;;;;;;1.33;1.23;;;7.90;99.90;;;;;;5095989;28;20042;-73
2023/12/18 11:33:10;;;;;;;1.75;1.65;;;8.00;99.90;;;;;;5099662;28;20075;-80
2023/12/18 11:35:37;;;;;;;1.58;1.48;;;8.20;99.90;;;;;;5095873;28;20032;-72
2023/12/18 11:38:07;;;;;;;1.33;1.23;;;7.90;99.90;;;;;;5095817;28;20043;-71
2023/12/18 11:40:39;;;;;;;1.55;1.45;;;8.60;99.90;;;;;;5101530;28;20040;-70
2023/12/18 11:43:06;;;;;;;2.55;2.05;;;7.90;99.90;;;;;;5095896;28;20036;-74
2023/12/18 11:45:34;;;;;;;1.80;1.55;;;7.90;99.90;;;;;;5095691;28;20476;-74
2023/12/18 11:48:02;;;;;;;2.35;2.15;;;8.00;99.90;;;;;;5095349;28;20480;-73
2023/12/18 11:50:34;;;;;;;22.52;4.72;;;7.90;99.90;;;;;;5095541;28;20515;-73
2023/12/18 11:53:00;;;;;;;9.18;2.55;;;8.80;99.90;;;;;;5095608;28;20040;-73
2023/12/18 11:55:41;;;;;;;2.53;1.77;;;8.00;99.90;;;;;;5095524;28;20044;-77
2023/12/18 11:58:07;;;;;;;1.42;1.33;;;8.00;99.90;;;;;;5095521;28;20349;-72
2023/12/18 12:00:34;;;;;;;1.60;1.50;;;8.10;99.90;;;;;;5095349;28;20046;-73
2023/12/18 12:03:00;;;;;;;;;;;8.10;99.90;;;;;;5096008;28;20357;-73
2023/12/18 12:05:27;;;;;;;1.67;1.58;;;8.20;99.90;;;;;;5095313;28;19939;-72
2023/12/18 12:07:53;;;;;;;1.50;1.40;;;8.20;99.90;;;;;;5095345;28;20063;-72
2023/12/18 12:10:19;;;;;;;1.60;1.50;;;8.20;99.90;;;;;;5094942;28;20285;-75
2023/12/18 12:12:51;;;;;;;3.25;1.40;;;8.20;99.90;;;;;;5095210;28;20042;-74
2023/12/18 12:15:17;;;;;;;1.20;1.10;;;8.30;99.90;;;;;;5095172;28;20036;-75
2023/12/18 12:17:42;;;;;;;1.60;1.20;;;8.30;99.90;;;;;;5095068;28;20521;-75
2023/12/18 12:20:08;;;;;;;2.28;2.17;;;8.30;99.90;;;;;;5094639;28;20036;-72
2023/12/18 12:22:34;;;;;;;1.20;1.10;;;8.40;99.90;;;;;;5095197;28;20157;-73
2023/12/18 12:25:00;;;;;;;1.50;1.40;;;8.30;99.90;;;;;;5093899;28;20032;-74
2023/12/18 12:27:29;;;;;;;3.50;2.95;;;8.30;99.90;;;;;;5094446;28;20072;-71
2023/12/18 12:29:54;;;;;;;1.15;1.05;;;8.40;99.90;;;;;;5094528;28;20083;-70
2023/12/18 12:32:20;;;;;;;1.20;1.10;;;8.40;99.90;;;;;;5094843;28;20055;-70
2023/12/18 12:34:49;;;;;;;2.80;1.88;;;8.40;99.90;;;;;;5094781;28;20062;-69
2023/12/18 12:37:16;;;;;;;1.23;1.13;;;9.00;99.90;;;;;;5094839;28;20102;-72
2023/12/18 12:40:01;;;;;;;1.30;1.20;;;8.40;99.90;;;;;;5076410;28;20037;-70
2023/12/18 12:42:28;;;;;;;1.30;1.20;;;8.50;99.90;;;;;;5074485;28;20449;-70
2023/12/18 12:44:54;;;;;;;;;;;8.40;99.90;;;;;;5113346;28;20038;-70
2023/12/18 12:47:20;;;;;;;1.40;1.30;;;9.10;99.90;;;;;;5114075;28;19920;-70
2023/12/18 12:49:46;;;;;;;1.27;1.17;;;8.40;99.90;;;;;;5114353;28;20057;-70
2023/12/18 12:52:16;;;;;;;1.90;1.40;;;8.40;99.90;;;;;;5114656;28;20031;-71
2023/12/18 12:54:46;;;;;;;1.20;1.10;;;8.40;99.90;;;;;;5114617;28;20086;-69